sensor_id;sensor_type;location;lat;lon;timestamp;pressure;altitude;pressure_sealevel;temperature;humidity
3780;BME280;1905;52.482;9.802;2023-07-20T00:01:10;100757.16;;;18.86;61.17
3780;BME280;1905;52.482;9.802;2023-07-20T00:03:38;100760.06;;;18.83;61.20
3780;BME280;1905;52.482;9.802;2023-07-20T00:06:06;100762.25;;;18.78;61.33
3780;BME280;1905;52.482;9.802;2023-07-20T00:08:33;100762.25;;;18.78;61.16
3780;BME280;1905;52.482;9.802;2023-07-20T00:11:01;100758.81;;;18.76;61.23
3780;BME280;1905;52.482;9.802;2023-07-20T00:13:31;100752.00;;;18.72;61.46
3780;BME280;1905;52.482;9.802;2023-07-20T00:15:58;100766.56;;;18.68;61.64
3780;BME280;1905;52.482;9.802;2023-07-20T00:18:26;100766.47;;;18.69;61.98
3780;BME280;1905;52.482;9.802;2023-07-20T00:20:54;100768.66;;;18.64;61.39
3780;BME280;1905;52.482;9.802;2023-07-20T00:23:21;100769.22;;;18.57;61.76
3780;BME280;1905;52.482;9.802;2023-07-20T00:25:49;100758.50;;;18.57;61.88
3780;BME280;1905;52.482;9.802;2023-07-20T00:28:17;100746.22;;;18.54;62.17
3780;BME280;1905;52.482;9.802;2023-07-20T00:30:46;100747.31;;;18.52;61.75
3780;BME280;1905;52.482;9.802;2023-07-20T00:33:16;100757.16;;;18.51;61.87
3780;BME280;1905;52.482;9.802;2023-07-20T00:35:44;100749.34;;;18.48;61.96
3780;BME280;1905;52.482;9.802;2023-07-20T00:38:15;100749.44;;;18.47;62.12
3780;BME280;1905;52.482;9.802;2023-07-20T00:40:43;100754.28;;;18.41;62.02
3780;BME280;1905;52.482;9.802;2023-07-20T00:43:10;100748.94;;;18.41;62.25
3780;BME280;1905;52.482;9.802;2023-07-20T00:45:39;100749.38;;;18.35;62.05
3780;BME280;1905;52.482;9.802;2023-07-20T00:48:08;100749.00;;;18.29;62.54
3780;BME280;1905;52.482;9.802;2023-07-20T00:50:36;100743.53;;;18.30;62.34
3780;BME280;1905;52.482;9.802;2023-07-20T00:53:04;100748.03;;;18.30;62.20
3780;BME280;1905;52.482;9.802;2023-07-20T00:55:33;100756.91;;;18.30;62.33
3780;BME280;1905;52.482;9.802;2023-07-20T00:58:01;100748.38;;;18.25;62.67
3780;BME280;1905;52.482;9.802;2023-07-20T01:00:29;100747.75;;;18.22;62.35
3780;BME280;1905;52.482;9.802;2023-07-20T01:02:57;100745.41;;;18.17;62.74
3780;BME280;1905;52.482;9.802;2023-07-20T01:05:35;100743.94;;;18.13;62.99
3780;BME280;1905;52.482;9.802;2023-07-20T01:08:12;100756.56;;;18.11;62.68
3780;BME280;1905;52.482;9.802;2023-07-20T01:10:46;100742.69;;;18.06;62.93
3780;BME280;1905;52.482;9.802;2023-07-20T01:13:17;100739.28;;;18.04;62.82
3780;BME280;1905;52.482;9.802;2023-07-20T01:15:49;100741.19;;;18.02;63.28
3780;BME280;1905;52.482;9.802;2023-07-20T01:18:17;100745.06;;;17.98;62.45
3780;BME280;1905;52.482;9.802;2023-07-20T01:20:46;100751.59;;;17.94;63.41
3780;BME280;1905;52.482;9.802;2023-07-20T01:23:39;100755.25;;;17.93;62.83
3780;BME280;1905;52.482;9.802;2023-07-20T01:26:36;100752.38;;;17.83;63.46
3780;BME280;1905;52.482;9.802;2023-07-20T01:29:28;100763.28;;;17.80;63.33
3780;BME280;1905;52.482;9.802;2023-07-20T01:32:04;100754.31;;;17.81;63.70
3780;BME280;1905;52.482;9.802;2023-07-20T01:34:34;100754.75;;;17.75;63.73
3780;BME280;1905;52.482;9.802;2023-07-20T01:37:03;100752.19;;;17.74;63.60
3780;BME280;1905;52.482;9.802;2023-07-20T01:39:33;100761.16;;;17.73;64.01
3780;BME280;1905;52.482;9.802;2023-07-20T01:42:01;100759.69;;;17.69;63.69
3780;BME280;1905;52.482;9.802;2023-07-20T01:44:29;100759.78;;;17.67;64.08
3780;BME280;1905;52.482;9.802;2023-07-20T01:46:57;100754.78;;;17.63;64.00
3780;BME280;1905;52.482;9.802;2023-07-20T01:49:25;100758.63;;;17.59;63.99
3780;BME280;1905;52.482;9.802;2023-07-20T01:51:53;100758.75;;;17.57;63.75
3780;BME280;1905;52.482;9.802;2023-07-20T01:54:21;100758.84;;;17.56;64.02
3780;BME280;1905;52.482;9.802;2023-07-20T01:56:48;100763.31;;;17.43;63.89
3780;BME280;1905;52.482;9.802;2023-07-20T01:59:16;100757.97;;;17.43;64.09
3780;BME280;1905;52.482;9.802;2023-07-20T02:01:44;100754.56;;;17.41;63.94
3780;BME280;1905;52.482;9.802;2023-07-20T02:04:12;100756.59;;;17.37;64.46
3780;BME280;1905;52.482;9.802;2023-07-20T02:06:41;100750.38;;;17.37;64.17
3780;BME280;1905;52.482;9.802;2023-07-20T02:09:10;100749.78;;;17.33;64.44
3780;BME280;1905;52.482;9.802;2023-07-20T02:11:38;100755.19;;;17.32;64.05
3780;BME280;1905;52.482;9.802;2023-07-20T02:14:05;100749.34;;;17.26;64.46
3780;BME280;1905;52.482;9.802;2023-07-20T02:16:33;100750.53;;;17.22;64.70
3780;BME280;1905;52.482;9.802;2023-07-20T02:19:01;100749.22;;;17.15;64.84
3780;BME280;1905;52.482;9.802;2023-07-20T02:21:30;100746.56;;;17.15;64.84
3780;BME280;1905;52.482;9.802;2023-07-20T02:23:59;100750.63;;;17.08;64.56
3780;BME280;1905;52.482;9.802;2023-07-20T02:26:27;100751.38;;;17.10;65.28
3780;BME280;1905;52.482;9.802;2023-07-20T02:28:55;100751.59;;;17.07;64.92
3780;BME280;1905;52.482;9.802;2023-07-20T02:31:23;100749.97;;;17.05;65.12
3780;BME280;1905;52.482;9.802;2023-07-20T02:33:51;100758.31;;;17.00;65.27
3780;BME280;1905;52.482;9.802;2023-07-20T02:36:18;100754.13;;;16.96;65.16
3780;BME280;1905;52.482;9.802;2023-07-20T02:38:47;100750.53;;;16.97;65.58
3780;BME280;1905;52.482;9.802;2023-07-20T02:41:16;100757.13;;;16.92;65.33
3780;BME280;1905;52.482;9.802;2023-07-20T02:43:43;100753.06;;;16.86;65.26
3780;BME280;1905;52.482;9.802;2023-07-20T02:46:11;100750.53;;;16.85;64.79
3780;BME280;1905;52.482;9.802;2023-07-20T02:48:39;100753.69;;;16.77;65.66
3780;BME280;1905;52.482;9.802;2023-07-20T02:51:06;100755.19;;;16.81;65.21
3780;BME280;1905;52.482;9.802;2023-07-20T02:53:35;100753.69;;;16.77;65.00
3780;BME280;1905;52.482;9.802;2023-07-20T02:56:03;100745.25;;;16.71;65.57
3780;BME280;1905;52.482;9.802;2023-07-20T02:58:34;100750.47;;;16.72;65.45
3780;BME280;1905;52.482;9.802;2023-07-20T03:01:03;100748.56;;;16.74;64.85
3780;BME280;1905;52.482;9.802;2023-07-20T03:03:31;100757.75;;;16.70;65.78
3780;BME280;1905;52.482;9.802;2023-07-20T03:06:03;100765.00;;;16.68;65.69
3780;BME280;1905;52.482;9.802;2023-07-20T03:08:30;100767.13;;;16.63;65.51
3780;BME280;1905;52.482;9.802;2023-07-20T03:10:58;100764.47;;;16.63;65.68
3780;BME280;1905;52.482;9.802;2023-07-20T03:13:28;100768.16;;;16.60;65.03
3780;BME280;1905;52.482;9.802;2023-07-20T03:15:58;100760.28;;;16.59;65.48
3780;BME280;1905;52.482;9.802;2023-07-20T03:18:28;100758.16;;;16.64;65.70
3780;BME280;1905;52.482;9.802;2023-07-20T03:20:55;100766.00;;;16.53;66.09
3780;BME280;1905;52.482;9.802;2023-07-20T03:23:24;100767.72;;;16.54;65.89
3780;BME280;1905;52.482;9.802;2023-07-20T03:25:53;100768.59;;;16.54;66.28
3780;BME280;1905;52.482;9.802;2023-07-20T03:28:21;100764.28;;;16.52;65.75
3780;BME280;1905;52.482;9.802;2023-07-20T03:30:53;100764.28;;;16.52;65.56
3780;BME280;1905;52.482;9.802;2023-07-20T03:33:25;100761.81;;;16.49;65.66
3780;BME280;1905;52.482;9.802;2023-07-20T03:35:53;100763.44;;;16.51;65.56
3780;BME280;1905;52.482;9.802;2023-07-20T03:38:21;100768.59;;;16.54;65.94
3780;BME280;1905;52.482;9.802;2023-07-20T03:40:50;100762.56;;;16.51;65.83
3780;BME280;1905;52.482;9.802;2023-07-20T03:43:18;100766.19;;;16.50;65.43
3780;BME280;1905;52.482;9.802;2023-07-20T03:45:46;100760.84;;;16.50;65.71
3780;BME280;1905;52.482;9.802;2023-07-20T03:48:15;100762.03;;;16.46;65.40
3780;BME280;1905;52.482;9.802;2023-07-20T03:50:45;100767.91;;;16.51;65.93
3780;BME280;1905;52.482;9.802;2023-07-20T03:53:13;100760.09;;;16.48;66.24
3780;BME280;1905;52.482;9.802;2023-07-20T03:55:41;100764.69;;;16.46;66.04
3780;BME280;1905;52.482;9.802;2023-07-20T03:58:09;100769.91;;;16.47;65.72
3780;BME280;1905;52.482;9.802;2023-07-20T04:00:37;100766.41;;;16.47;65.82
3780;BME280;1905;52.482;9.802;2023-07-20T04:03:04;100766.19;;;16.50;66.07
3780;BME280;1905;52.482;9.802;2023-07-20T04:05:32;100774.28;;;16.48;65.64
3780;BME280;1905;52.482;9.802;2023-07-20T04:08:01;100767.91;;;16.51;65.33
3780;BME280;1905;52.482;9.802;2023-07-20T04:10:29;100766.78;;;16.55;65.56
3780;BME280;1905;52.482;9.802;2023-07-20T04:12:57;100766.88;;;16.53;65.81
3780;BME280;1905;52.482;9.802;2023-07-20T04:15:25;100769.22;;;16.58;65.04
3780;BME280;1905;52.482;9.802;2023-07-20T04:17:53;100782.88;;;16.53;65.02
3780;BME280;1905;52.482;9.802;2023-07-20T04:20:22;100785.44;;;16.55;65.37
3780;BME280;1905;52.482;9.802;2023-07-20T04:22:50;100794.81;;;16.60;65.32
3780;BME280;1905;52.482;9.802;2023-07-20T04:25:19;100792.47;;;16.56;65.71
3780;BME280;1905;52.482;9.802;2023-07-20T04:27:47;100794.00;;;16.60;65.77
3780;BME280;1905;52.482;9.802;2023-07-20T04:30:17;100797.59;;;16.59;65.25
3780;BME280;1905;52.482;9.802;2023-07-20T04:32:46;100795.88;;;16.58;65.82
3780;BME280;1905;52.482;9.802;2023-07-20T04:35:17;100800.69;;;16.53;65.81
3780;BME280;1905;52.482;9.802;2023-07-20T04:37:47;100811.69;;;16.61;66.05
3780;BME280;1905;52.482;9.802;2023-07-20T04:40:23;100808.06;;;16.62;66.17
3780;BME280;1905;52.482;9.802;2023-07-20T04:42:51;100811.47;;;16.64;65.59
3780;BME280;1905;52.482;9.802;2023-07-20T04:45:19;100814.34;;;16.61;66.55
3780;BME280;1905;52.482;9.802;2023-07-20T04:47:50;100802.75;;;16.62;66.23
3780;BME280;1905;52.482;9.802;2023-07-20T04:50:18;100803.47;;;16.64;66.75
3780;BME280;1905;52.482;9.802;2023-07-20T04:52:46;100807.00;;;16.64;66.87
3780;BME280;1905;52.482;9.802;2023-07-20T04:55:17;100802.63;;;16.63;67.24
3780;BME280;1905;52.482;9.802;2023-07-20T04:57:47;100805.41;;;16.62;66.82
3780;BME280;1905;52.482;9.802;2023-07-20T05:00:16;100809.78;;;16.63;67.07
3780;BME280;1905;52.482;9.802;2023-07-20T05:02:44;100801.88;;;16.61;66.73
3780;BME280;1905;52.482;9.802;2023-07-20T05:05:14;100807.88;;;16.65;67.36
3780;BME280;1905;52.482;9.802;2023-07-20T05:07:42;100807.66;;;16.68;66.94
3780;BME280;1905;52.482;9.802;2023-07-20T05:10:10;100807.66;;;16.68;66.78
3780;BME280;1905;52.482;9.802;2023-07-20T05:12:38;100808.63;;;16.67;67.31
3780;BME280;1905;52.482;9.802;2023-07-20T05:15:09;100811.28;;;16.67;67.01
3780;BME280;1905;52.482;9.802;2023-07-20T05:17:39;100802.34;;;16.68;67.36
3780;BME280;1905;52.482;9.802;2023-07-20T05:20:07;100799.66;;;16.68;67.04
3780;BME280;1905;52.482;9.802;2023-07-20T05:22:38;100805.00;;;16.68;67.88
3780;BME280;1905;52.482;9.802;2023-07-20T05:25:07;100814.69;;;16.69;67.36
3780;BME280;1905;52.482;9.802;2023-07-20T05:27:36;100810.13;;;16.71;67.08
3780;BME280;1905;52.482;9.802;2023-07-20T05:30:05;100817.28;;;16.71;67.20
3780;BME280;1905;52.482;9.802;2023-07-20T05:32:35;100815.34;;;16.73;67.38
3780;BME280;1905;52.482;9.802;2023-07-20T05:35:04;100815.34;;;16.73;67.40
3780;BME280;1905;52.482;9.802;2023-07-20T05:37:32;100821.56;;;16.73;67.03
3780;BME280;1905;52.482;9.802;2023-07-20T05:40:00;100820.50;;;16.76;67.32
3780;BME280;1905;52.482;9.802;2023-07-20T05:42:29;100820.50;;;16.76;67.42
3780;BME280;1905;52.482;9.802;2023-07-20T05:44:57;100827.53;;;16.77;67.66
3780;BME280;1905;52.482;9.802;2023-07-20T05:47:25;100820.50;;;16.76;67.09
3780;BME280;1905;52.482;9.802;2023-07-20T05:49:54;100830.09;;;16.78;67.14
3780;BME280;1905;52.482;9.802;2023-07-20T05:52:22;100836.19;;;16.80;67.02
3780;BME280;1905;52.482;9.802;2023-07-20T05:54:50;100835.44;;;16.78;67.62
3780;BME280;1905;52.482;9.802;2023-07-20T05:57:18;100829.91;;;16.81;67.65
3780;BME280;1905;52.482;9.802;2023-07-20T05:59:46;100833.31;;;16.83;67.19
3780;BME280;1905;52.482;9.802;2023-07-20T06:02:13;100830.44;;;16.86;67.08
3780;BME280;1905;52.482;9.802;2023-07-20T06:04:41;100829.56;;;16.86;68.41
3780;BME280;1905;52.482;9.802;2023-07-20T06:07:10;100826.81;;;16.87;67.04
3780;BME280;1905;52.482;9.802;2023-07-20T06:09:38;100830.03;;;16.92;67.58
3780;BME280;1905;52.482;9.802;2023-07-20T06:12:08;100832.91;;;16.89;68.45
3780;BME280;1905;52.482;9.802;2023-07-20T06:14:36;100829.06;;;16.93;67.96
3780;BME280;1905;52.482;9.802;2023-07-20T06:17:05;100820.97;;;16.95;68.19
3780;BME280;1905;52.482;9.802;2023-07-20T06:19:33;100821.81;;;16.95;67.99
3780;BME280;1905;52.482;9.802;2023-07-20T06:22:01;100837.63;;;16.98;68.31
3780;BME280;1905;52.482;9.802;2023-07-20T06:24:31;100841.03;;;17.00;67.71
3780;BME280;1905;52.482;9.802;2023-07-20T06:26:59;100846.16;;;17.03;68.08
3780;BME280;1905;52.482;9.802;2023-07-20T06:29:27;100839.78;;;17.06;68.21
3780;BME280;1905;52.482;9.802;2023-07-20T06:31:55;100838.50;;;17.11;67.92
3780;BME280;1905;52.482;9.802;2023-07-20T06:34:23;100850.66;;;17.15;68.14
3780;BME280;1905;52.482;9.802;2023-07-20T06:36:50;100845.84;;;17.20;67.92
3780;BME280;1905;52.482;9.802;2023-07-20T06:39:18;100853.88;;;17.20;68.27
3780;BME280;1905;52.482;9.802;2023-07-20T06:41:53;100849.31;;;17.22;68.36
3780;BME280;1905;52.482;9.802;2023-07-20T06:44:21;100849.84;;;17.27;68.32
3780;BME280;1905;52.482;9.802;2023-07-20T06:46:49;100859.44;;;17.30;68.03
3780;BME280;1905;52.482;9.802;2023-07-20T06:49:24;100858.16;;;17.36;67.63
3780;BME280;1905;52.482;9.802;2023-07-20T06:51:52;100865.97;;;17.39;nan
3780;BME280;1905;52.482;9.802;2023-07-20T06:54:20;100859.66;;;17.40;68.80
3780;BME280;1905;52.482;9.802;2023-07-20T06:56:49;100862.88;;;17.45;69.06
3780;BME280;1905;52.482;9.802;2023-07-20T06:59:21;100862.25;;;17.54;70.21
3780;BME280;1905;52.482;9.802;2023-07-20T07:01:50;100861.50;;;17.52;69.23
3780;BME280;1905;52.482;9.802;2023-07-20T07:04:18;100858.31;;;17.59;69.09
3780;BME280;1905;52.482;9.802;2023-07-20T07:06:46;100858.22;;;17.61;69.86
3780;BME280;1905;52.482;9.802;2023-07-20T07:09:14;100856.09;;;17.66;69.57
3780;BME280;1905;52.482;9.802;2023-07-20T07:11:44;100860.75;;;17.75;69.67
3780;BME280;1905;52.482;9.802;2023-07-20T07:14:12;100849.84;;;17.78;69.65
3780;BME280;1905;52.482;9.802;2023-07-20T07:16:41;100860.13;;;17.84;70.00
3780;BME280;1905;52.482;9.802;2023-07-20T07:19:10;100866.72;;;17.91;68.22
3780;BME280;1905;52.482;9.802;2023-07-20T07:21:40;100866.28;;;17.97;68.17
3780;BME280;1905;52.482;9.802;2023-07-20T07:24:11;100860.63;;;18.02;67.85
3780;BME280;1905;52.482;9.802;2023-07-20T07:26:44;100863.31;;;18.02;67.89
3780;BME280;1905;52.482;9.802;2023-07-20T07:29:12;100865.84;;;18.03;68.45
3780;BME280;1905;52.482;9.802;2023-07-20T07:31:41;100867.38;;;18.07;67.96
3780;BME280;1905;52.482;9.802;2023-07-20T07:34:09;100869.56;;;18.13;67.63
3780;BME280;1905;52.482;9.802;2023-07-20T07:36:39;100875.69;;;18.15;70.28
3780;BME280;1905;52.482;9.802;2023-07-20T07:39:07;100878.13;;;18.18;70.13
3780;BME280;1905;52.482;9.802;2023-07-20T07:41:39;100879.41;;;18.25;69.62
3780;BME280;1905;52.482;9.802;2023-07-20T07:44:06;100880.88;;;18.29;70.09
3780;BME280;1905;52.482;9.802;2023-07-20T07:46:34;100879.91;;;18.30;67.98
3780;BME280;1905;52.482;9.802;2023-07-20T07:49:04;100879.88;;;18.43;67.65
3780;BME280;1905;52.482;9.802;2023-07-20T07:51:32;100878.16;;;18.55;67.28
3780;BME280;1905;52.482;9.802;2023-07-20T07:54:00;100879.41;;;18.62;66.55
3780;BME280;1905;52.482;9.802;2023-07-20T07:56:28;100881.63;;;18.68;66.69
3780;BME280;1905;52.482;9.802;2023-07-20T07:58:56;100884.81;;;18.73;66.53
3780;BME280;1905;52.482;9.802;2023-07-20T08:01:23;100880.59;;;18.81;66.03
3780;BME280;1905;52.482;9.802;2023-07-20T08:03:52;100888.53;;;18.83;66.38
3780;BME280;1905;52.482;9.802;2023-07-20T08:06:22;100887.69;;;18.82;66.34
3780;BME280;1905;52.482;9.802;2023-07-20T08:08:51;100888.59;;;18.94;65.57
3780;BME280;1905;52.482;9.802;2023-07-20T08:11:18;100889.69;;;19.02;66.30
3780;BME280;1905;52.482;9.802;2023-07-20T08:13:46;100882.06;;;19.09;64.93
3780;BME280;1905;52.482;9.802;2023-07-20T08:16:14;100893.22;;;19.27;64.62
3780;BME280;1905;52.482;9.802;2023-07-20T08:18:43;100885.56;;;19.33;64.09
3780;BME280;1905;52.482;9.802;2023-07-20T08:21:12;100884.75;;;19.44;64.75
3780;BME280;1905;52.482;9.802;2023-07-20T08:23:41;100898.56;;;19.62;64.12
3780;BME280;1905;52.482;9.802;2023-07-20T08:26:09;100883.47;;;19.72;63.60
3780;BME280;1905;52.482;9.802;2023-07-20T08:28:37;100891.50;;;19.72;62.97
3780;BME280;1905;52.482;9.802;2023-07-20T08:31:06;100878.34;;;19.80;62.85
3780;BME280;1905;52.482;9.802;2023-07-20T08:33:33;100885.31;;;20.04;62.82
3780;BME280;1905;52.482;9.802;2023-07-20T08:36:01;100881.78;;;20.15;62.85
3780;BME280;1905;52.482;9.802;2023-07-20T08:38:30;100884.22;;;20.18;62.37
3780;BME280;1905;52.482;9.802;2023-07-20T08:40:59;100887.03;;;20.28;62.07
3780;BME280;1905;52.482;9.802;2023-07-20T08:43:30;100901.91;;;20.32;61.25
3780;BME280;1905;52.482;9.802;2023-07-20T08:45:58;100883.44;;;20.49;61.87
3780;BME280;1905;52.482;9.802;2023-07-20T08:48:27;100888.06;;;20.69;61.91
3780;BME280;1905;52.482;9.802;2023-07-20T08:50:57;100888.06;;;20.58;60.75
3780;BME280;1905;52.482;9.802;2023-07-20T08:53:27;100893.41;;;20.69;59.68
3780;BME280;1905;52.482;9.802;2023-07-20T08:55:58;100889.44;;;20.85;61.06
3780;BME280;1905;52.482;9.802;2023-07-20T08:58:28;100887.97;;;20.92;60.67
3780;BME280;1905;52.482;9.802;2023-07-20T09:01:00;100891.13;;;20.97;59.77
3780;BME280;1905;52.482;9.802;2023-07-20T09:03:29;100897.69;;;21.04;59.50
3780;BME280;1905;52.482;9.802;2023-07-20T09:05:56;100897.22;;;21.10;59.02
3780;BME280;1905;52.482;9.802;2023-07-20T09:08:25;100890.00;;;21.10;58.56
3780;BME280;1905;52.482;9.802;2023-07-20T09:10:53;100893.09;;;21.26;59.72
3780;BME280;1905;52.482;9.802;2023-07-20T09:13:21;100884.59;;;21.21;57.46
3780;BME280;1905;52.482;9.802;2023-07-20T09:15:54;100881.25;;;21.29;56.91
3780;BME280;1905;52.482;9.802;2023-07-20T09:18:25;100880.47;;;21.38;56.77
3780;BME280;1905;52.482;9.802;2023-07-20T09:20:53;100872.59;;;21.46;57.30
3780;BME280;1905;52.482;9.802;2023-07-20T09:23:30;100873.13;;;21.40;55.91
3780;BME280;1905;52.482;9.802;2023-07-20T09:25:59;100875.75;;;21.51;58.15
3780;BME280;1905;52.482;9.802;2023-07-20T09:28:27;100870.28;;;21.42;55.45
3780;BME280;1905;52.482;9.802;2023-07-20T09:30:56;100877.06;;;21.36;54.28
3780;BME280;1905;52.482;9.802;2023-07-20T09:33:25;100876.22;;;21.35;53.66
3780;BME280;1905;52.482;9.802;2023-07-20T09:36:02;100873.31;;;21.27;52.92
3780;BME280;1905;52.482;9.802;2023-07-20T09:38:49;100880.31;;;21.40;53.44
3780;BME280;1905;52.482;9.802;2023-07-20T09:41:21;100871.88;;;21.44;53.27
3780;BME280;1905;52.482;9.802;2023-07-20T09:43:52;100873.31;;;21.48;53.52
3780;BME280;1905;52.482;9.802;2023-07-20T09:46:22;100878.44;;;21.51;54.03
3780;BME280;1905;52.482;9.802;2023-07-20T09:48:53;100879.94;;;21.44;53.42
3780;BME280;1905;52.482;9.802;2023-07-20T09:51:24;100873.31;;;21.48;53.32
3780;BME280;1905;52.482;9.802;2023-07-20T09:53:52;100877.91;;;21.57;53.95
3780;BME280;1905;52.482;9.802;2023-07-20T09:56:21;100879.66;;;21.47;51.96
3780;BME280;1905;52.482;9.802;2023-07-20T09:58:50;100888.72;;;21.46;52.71
3780;BME280;1905;52.482;9.802;2023-07-20T10:01:20;100880.53;;;21.48;52.84
3780;BME280;1905;52.482;9.802;2023-07-20T10:03:57;100877.47;;;21.52;53.06
3780;BME280;1905;52.482;9.802;2023-07-20T10:06:29;100872.09;;;21.52;52.42
3780;BME280;1905;52.482;9.802;2023-07-20T10:09:02;100869.78;;;21.48;53.71
3780;BME280;1905;52.482;9.802;2023-07-20T10:11:31;100871.59;;;21.47;52.95
3780;BME280;1905;52.482;9.802;2023-07-20T10:14:03;100887.28;;;21.42;51.66
3780;BME280;1905;52.482;9.802;2023-07-20T10:16:35;100887.53;;;21.39;52.15
3780;BME280;1905;52.482;9.802;2023-07-20T10:19:07;100880.22;;;21.41;53.26
3780;BME280;1905;52.482;9.802;2023-07-20T10:21:41;100883.28;;;21.36;52.71
3780;BME280;1905;52.482;9.802;2023-07-20T10:24:11;100878.75;;;21.37;52.66
3780;BME280;1905;52.482;9.802;2023-07-20T10:26:39;100885.59;;;21.41;52.56
3780;BME280;1905;52.482;9.802;2023-07-20T10:29:08;100880.78;;;21.45;51.63
3780;BME280;1905;52.482;9.802;2023-07-20T10:31:36;100866.03;;;21.39;51.89
3780;BME280;1905;52.482;9.802;2023-07-20T10:34:06;100881.44;;;21.37;51.65
3780;BME280;1905;52.482;9.802;2023-07-20T10:36:43;100863.81;;;21.44;50.74
3780;BME280;1905;52.482;9.802;2023-07-20T10:39:22;100870.38;;;21.51;51.44
3780;BME280;1905;52.482;9.802;2023-07-20T10:41:59;100865.78;;;21.42;51.48
3780;BME280;1905;52.482;9.802;2023-07-20T10:44:28;100861.84;;;21.46;51.50
3780;BME280;1905;52.482;9.802;2023-07-20T10:47:00;100863.53;;;21.47;52.54
3780;BME280;1905;52.482;9.802;2023-07-20T10:49:34;100855.09;;;21.52;51.61
3780;BME280;1905;52.482;9.802;2023-07-20T10:52:04;100865.69;;;21.53;52.52
3780;BME280;1905;52.482;9.802;2023-07-20T10:54:47;100867.16;;;21.57;52.85
3780;BME280;1905;52.482;9.802;2023-07-20T10:57:29;100859.53;;;21.62;51.52
3780;BME280;1905;52.482;9.802;2023-07-20T11:00:09;100861.97;;;21.65;52.08
3780;BME280;1905;52.482;9.802;2023-07-20T11:02:42;100859.38;;;21.64;51.98
3780;BME280;1905;52.482;9.802;2023-07-20T11:05:33;100858.16;;;21.68;52.67
3780;BME280;1905;52.482;9.802;2023-07-20T11:08:06;100854.88;;;21.64;51.57
3780;BME280;1905;52.482;9.802;2023-07-20T11:10:37;100863.13;;;21.72;51.78
3780;BME280;1905;52.482;9.802;2023-07-20T11:13:21;100862.53;;;21.69;51.81
3780;BME280;1905;52.482;9.802;2023-07-20T11:16:11;100855.75;;;21.74;51.51
3780;BME280;1905;52.482;9.802;2023-07-20T11:18:39;100863.84;;;21.74;51.53
3780;BME280;1905;52.482;9.802;2023-07-20T11:21:10;100859.50;;;21.83;51.67
3780;BME280;1905;52.482;9.802;2023-07-20T11:23:39;100856.44;;;21.87;50.48
3780;BME280;1905;52.482;9.802;2023-07-20T11:26:07;100846.78;;;21.85;50.63
3780;BME280;1905;52.482;9.802;2023-07-20T11:28:36;100856.44;;;21.87;50.13
3780;BME280;1905;52.482;9.802;2023-07-20T11:31:04;100861.53;;;21.90;49.16
3780;BME280;1905;52.482;9.802;2023-07-20T11:33:32;100859.31;;;21.96;50.24
3780;BME280;1905;52.482;9.802;2023-07-20T11:36:00;100866.91;;;21.90;48.87
3780;BME280;1905;52.482;9.802;2023-07-20T11:38:30;100874.00;;;21.91;50.30
3780;BME280;1905;52.482;9.802;2023-07-20T11:40:58;100858.72;;;21.92;49.37
3780;BME280;1905;52.482;9.802;2023-07-20T11:43:26;100849.34;;;21.86;48.78
3780;BME280;1905;52.482;9.802;2023-07-20T11:45:54;100861.25;;;21.93;49.11
3780;BME280;1905;52.482;9.802;2023-07-20T11:48:22;100863.25;;;21.91;47.54
3780;BME280;1905;52.482;9.802;2023-07-20T11:50:51;100846.78;;;21.85;47.02
3780;BME280;1905;52.482;9.802;2023-07-20T11:53:19;100854.75;;;21.86;47.04
3780;BME280;1905;52.482;9.802;2023-07-20T11:55:48;100855.44;;;21.88;48.17
3780;BME280;1905;52.482;9.802;2023-07-20T11:58:16;100859.31;;;21.96;48.41
3780;BME280;1905;52.482;9.802;2023-07-20T12:00:44;100851.97;;;21.98;48.75
3780;BME280;1905;52.482;9.802;2023-07-20T12:03:13;100853.66;;;21.99;48.64
3780;BME280;1905;52.482;9.802;2023-07-20T12:05:41;100855.09;;;22.03;47.98
3780;BME280;1905;52.482;9.802;2023-07-20T12:08:27;100847.72;;;22.05;49.68
3780;BME280;1905;52.482;9.802;2023-07-20T12:10:56;100854.41;;;22.10;49.87
3780;BME280;1905;52.482;9.802;2023-07-20T12:13:35;100851.00;;;22.18;48.67
3780;BME280;1905;52.482;9.802;2023-07-20T12:16:09;100839.97;;;22.21;48.29
3780;BME280;1905;52.482;9.802;2023-07-20T12:18:37;100845.53;;;22.29;49.81
3780;BME280;1905;52.482;9.802;2023-07-20T12:21:06;100851.66;;;22.31;49.96
3780;BME280;1905;52.482;9.802;2023-07-20T12:23:35;100846.97;;;22.33;49.16
3780;BME280;1905;52.482;9.802;2023-07-20T12:26:06;100850.41;;;22.44;48.79
3780;BME280;1905;52.482;9.802;2023-07-20T12:28:38;100852.94;;;22.46;47.64
3780;BME280;1905;52.482;9.802;2023-07-20T12:31:07;100851.53;;;22.42;47.34
3780;BME280;1905;52.482;9.802;2023-07-20T12:33:36;100854.94;;;22.53;48.76
3780;BME280;1905;52.482;9.802;2023-07-20T12:36:04;100842.91;;;22.58;48.33
3780;BME280;1905;52.482;9.802;2023-07-20T12:38:33;100846.19;;;22.61;48.83
3780;BME280;1905;52.482;9.802;2023-07-20T12:41:02;100839.78;;;22.62;47.32
3780;BME280;1905;52.482;9.802;2023-07-20T12:43:32;100842.47;;;22.62;47.76
3780;BME280;1905;52.482;9.802;2023-07-20T12:46:00;100854.25;;;22.61;48.06
3780;BME280;1905;52.482;9.802;2023-07-20T12:48:28;100844.38;;;22.71;47.75
3780;BME280;1905;52.482;9.802;2023-07-20T12:50:55;100847.19;;;22.70;48.56
3780;BME280;1905;52.482;9.802;2023-07-20T12:53:23;100841.13;;;22.77;47.47
3780;BME280;1905;52.482;9.802;2023-07-20T12:55:51;100846.34;;;22.79;47.13
3780;BME280;1905;52.482;9.802;2023-07-20T12:58:19;100829.75;;;22.83;46.14
3780;BME280;1905;52.482;9.802;2023-07-20T13:00:48;100832.75;;;22.90;47.43
3780;BME280;1905;52.482;9.802;2023-07-20T13:03:16;100836.03;;;22.93;46.62
3780;BME280;1905;52.482;9.802;2023-07-20T13:05:48;100833.47;;;23.01;47.74
3780;BME280;1905;52.482;9.802;2023-07-20T13:08:19;100831.44;;;23.13;47.53
3780;BME280;1905;52.482;9.802;2023-07-20T13:10:47;100839.38;;;23.24;46.58
3780;BME280;1905;52.482;9.802;2023-07-20T13:13:16;100856.28;;;23.26;46.84
3780;BME280;1905;52.482;9.802;2023-07-20T13:15:44;100852.16;;;23.22;46.07
3780;BME280;1905;52.482;9.802;2023-07-20T13:18:14;100847.88;;;23.29;47.75
3780;BME280;1905;52.482;9.802;2023-07-20T13:20:41;100847.75;;;23.21;45.72
3780;BME280;1905;52.482;9.802;2023-07-20T13:23:09;100847.91;;;23.20;46.79